sensor_id;sensor_type;location;lat;lon;timestamp;pressure;altitude;pressure_sealevel;temperature;humidity
54808;BME280;40708;50.364;7.550;2023-04-01T00:01:20;98600.91;;;10.64;100.00
54808;BME280;40708;50.364;7.550;2023-04-01T00:03:45;98629.13;;;10.67;100.00
54808;BME280;40708;50.364;7.550;2023-04-01T00:06:13;98629.06;;;10.68;100.00
54808;BME280;40708;50.364;7.550;2023-04-01T00:08:39;98634.44;;;10.65;100.00
54808;BME280;40708;50.364;7.550;2023-04-01T00:11:05;98619.50;;;10.63;100.00
54808;BME280;40708;50.364;7.550;2023-04-01T00:13:30;98630.34;;;10.55;100.00
54808;BME280;40708;50.364;7.550;2023-04-01T00:15:56;98628.47;;;10.59;100.00
54808;BME280;40708;50.364;7.550;2023-04-01T00:18:22;98624.16;;;10.55;100.00
54808;BME280;40708;50.364;7.550;2023-04-01T00:20:49;98622.22;;;10.61;100.00
54808;BME280;40708;50.364;7.550;2023-04-01T00:23:15;98618.84;;;10.55;100.00
54808;BME280;40708;50.364;7.550;2023-04-01T00:25:41;98618.84;;;10.55;100.00
54808;BME280;40708;50.364;7.550;2023-04-01T00:28:06;98631.22;;;10.56;100.00
54808;BME280;40708;50.364;7.550;2023-04-01T00:30:32;98626.78;;;10.56;100.00
54808;BME280;40708;50.364;7.550;2023-04-01T00:32:57;98624.22;;;10.53;100.00
54808;BME280;40708;50.364;7.550;2023-04-01T00:35:23;98622.38;;;10.55;100.00
54808;BME280;40708;50.364;7.550;2023-04-01T00:37:48;98616.28;;;10.52;100.00
54808;BME280;40708;50.364;7.550;2023-04-01T00:40:35;98625.84;;;10.57;100.00
54808;BME280;40708;50.364;7.550;2023-04-01T00:43:01;98631.22;;;10.56;100.00
54808;BME280;40708;50.364;7.550;2023-04-01T00:45:33;98619.59;;;10.60;100.00
54808;BME280;40708;50.364;7.550;2023-04-01T00:48:03;98616.81;;;10.64;100.00
54808;BME280;40708;50.364;7.550;2023-04-01T00:50:30;98625.75;;;10.62;100.00
54808;BME280;40708;50.364;7.550;2023-04-01T00:52:57;98621.19;;;10.65;100.00
54808;BME280;40708;50.364;7.550;2023-04-01T00:55:23;98621.09;;;10.70;100.00
54808;BME280;40708;50.364;7.550;2023-04-01T00:57:53;98627.19;;;10.72;100.00
54808;BME280;40708;50.364;7.550;2023-04-01T01:00:19;98607.00;;;10.68;100.00
54808;BME280;40708;50.364;7.550;2023-04-01T01:02:45;98617.69;;;10.65;100.00
54808;BME280;40708;50.364;7.550;2023-04-01T01:05:13;98612.25;;;10.69;100.00
54808;BME280;40708;50.364;7.550;2023-04-01T01:07:51;98624.63;;;10.69;100.00
54808;BME280;40708;50.364;7.550;2023-04-01T01:10:30;98612.34;;;10.66;100.00
54808;BME280;40708;50.364;7.550;2023-04-01T01:15:41;98602.59;;;10.67;100.00
54808;BME280;40708;50.364;7.550;2023-04-01T01:18:29;98605.28;;;10.65;100.00
54808;BME280;40708;50.364;7.550;2023-04-01T01:21:38;98600.19;;;10.59;100.00
54808;BME280;40708;50.364;7.550;2023-04-01T01:24:39;98605.47;;;10.59;100.00
54808;BME280;40708;50.364;7.550;2023-04-01T01:27:11;98614.41;;;10.57;100.00
54808;BME280;40708;50.364;7.550;2023-04-01T01:29:59;98606.56;;;10.52;100.00
54808;BME280;40708;50.364;7.550;2023-04-01T01:32:47;98611.84;;;10.52;100.00
54808;BME280;40708;50.364;7.550;2023-04-01T01:35:33;98610.13;;;10.51;100.00
54808;BME280;40708;50.364;7.550;2023-04-01T01:38:04;98608.47;;;10.47;100.00
54808;BME280;40708;50.364;7.550;2023-04-01T01:40:32;98618.09;;;10.51;100.00
54808;BME280;40708;50.364;7.550;2023-04-01T01:43:04;98607.50;;;10.50;100.00
54808;BME280;40708;50.364;7.550;2023-04-01T01:45:32;98620.09;;;10.43;100.00
54808;BME280;40708;50.364;7.550;2023-04-01T01:48:00;98603.47;;;10.37;100.00
54808;BME280;40708;50.364;7.550;2023-04-01T01:50:27;98607.78;;;10.41;100.00
54808;BME280;40708;50.364;7.550;2023-04-01T01:53:01;98592.88;;;10.37;100.00
54808;BME280;40708;50.364;7.550;2023-04-01T01:55:30;98605.25;;;10.36;100.00
54808;BME280;40708;50.364;7.550;2023-04-01T01:57:58;98600.81;;;10.37;100.00
54808;BME280;40708;50.364;7.550;2023-04-01T02:00:25;98598.97;;;10.40;100.00
54808;BME280;40708;50.364;7.550;2023-04-01T02:02:52;98604.50;;;10.33;100.00
54808;BME280;40708;50.364;7.550;2023-04-01T02:05:21;98595.59;;;10.34;100.00
54808;BME280;40708;50.364;7.550;2023-04-01T02:07:57;98596.25;;;10.42;100.00
54808;BME280;40708;50.364;7.550;2023-04-01T02:10:26;98597.34;;;10.35;100.00
54808;BME280;40708;50.364;7.550;2023-04-01T02:12:58;98597.38;;;10.33;100.00
54808;BME280;40708;50.364;7.550;2023-04-01T02:15:25;98590.97;;;10.42;100.00
54808;BME280;40708;50.364;7.550;2023-04-01T02:17:55;98593.88;;;10.33;100.00
54808;BME280;40708;50.364;7.550;2023-04-01T02:20:23;98597.56;;;10.27;100.00
54808;BME280;40708;50.364;7.550;2023-04-01T02:22:53;98594.00;;;10.28;100.00
54808;BME280;40708;50.364;7.550;2023-04-01T02:25:28;98601.03;;;10.29;100.00
54808;BME280;40708;50.364;7.550;2023-04-01T02:27:56;98613.34;;;10.32;100.00
54808;BME280;40708;50.364;7.550;2023-04-01T02:30:23;98613.38;;;10.30;100.00
54808;BME280;40708;50.364;7.550;2023-04-01T02:32:50;98605.31;;;10.33;100.00
54808;BME280;40708;50.364;7.550;2023-04-01T02:35:17;98615.19;;;10.28;100.00
54808;BME280;40708;50.364;7.550;2023-04-01T02:37:44;98613.41;;;10.29;100.00
54808;BME280;40708;50.364;7.550;2023-04-01T02:40:12;98618.66;;;10.30;100.00
54808;BME280;40708;50.364;7.550;2023-04-01T02:42:38;98615.19;;;10.28;100.00
54808;BME280;40708;50.364;7.550;2023-04-01T02:45:05;98618.78;;;10.27;100.00
54808;BME280;40708;50.364;7.550;2023-04-01T02:47:30;98612.47;;;10.31;100.00
54808;BME280;40708;50.364;7.550;2023-04-01T02:49:56;98608.91;;;10.32;100.00
54808;BME280;40708;50.364;7.550;2023-04-01T02:52:30;98618.66;;;10.30;100.00
54808;BME280;40708;50.364;7.550;2023-04-01T02:54:56;98610.63;;;10.33;100.00
54808;BME280;40708;50.364;7.550;2023-04-01T02:57:22;98605.47;;;10.29;100.00
54808;BME280;40708;50.364;7.550;2023-04-01T02:59:47;98607.31;;;10.25;100.00
54808;BME280;40708;50.364;7.550;2023-04-01T03:02:13;98599.44;;;10.24;100.00
54808;BME280;40708;50.364;7.550;2023-04-01T03:04:39;98603.84;;;10.23;100.00
54808;BME280;40708;50.364;7.550;2023-04-01T03:07:04;98594.16;;;10.22;100.00
54808;BME280;40708;50.364;7.550;2023-04-01T03:09:29;98598.34;;;10.31;100.00
54808;BME280;40708;50.364;7.550;2023-04-01T03:11:55;98597.66;;;10.24;100.00
54808;BME280;40708;50.364;7.550;2023-04-01T03:14:20;98593.25;;;10.23;100.00
54808;BME280;40708;50.364;7.550;2023-04-01T03:16:46;98612.69;;;10.24;100.00
54808;BME280;40708;50.364;7.550;2023-04-01T03:19:11;98598.41;;;10.29;100.00
54808;BME280;40708;50.364;7.550;2023-04-01T03:21:36;98596.41;;;10.36;100.00
54808;BME280;40708;50.364;7.550;2023-04-01T03:24:02;98598.22;;;10.35;100.00
54808;BME280;40708;50.364;7.550;2023-04-01T03:26:27;98595.81;;;10.26;100.00
54808;BME280;40708;50.364;7.550;2023-04-01T03:28:53;98594.00;;;10.28;100.00
54808;BME280;40708;50.364;7.550;2023-04-01T03:31:18;98595.75;;;10.29;100.00
54808;BME280;40708;50.364;7.550;2023-04-01T03:33:44;98593.78;;;10.36;100.00
54808;BME280;40708;50.364;7.550;2023-04-01T03:36:10;98587.66;;;10.34;100.00
54808;BME280;40708;50.364;7.550;2023-04-01T03:38:37;98585.94;;;10.33;100.00
54808;BME280;40708;50.364;7.550;2023-04-01T03:41:03;98600.38;;;10.21;100.00
54808;BME280;40708;50.364;7.550;2023-04-01T03:43:28;98599.19;;;10.33;100.00
54808;BME280;40708;50.364;7.550;2023-04-01T03:45:53;98590.53;;;10.26;100.00
54808;BME280;40708;50.364;7.550;2023-04-01T03:48:20;98595.75;;;10.29;100.00
54808;BME280;40708;50.364;7.550;2023-04-01T03:50:46;98581.75;;;10.24;100.00
54808;BME280;40708;50.364;7.550;2023-04-01T03:53:12;98587.88;;;10.26;100.00
54808;BME280;40708;50.364;7.550;2023-04-01T03:55:38;98588.00;;;10.22;100.00
54808;BME280;40708;50.364;7.550;2023-04-01T03:58:04;98588.78;;;10.25;100.00
54808;BME280;40708;50.364;7.550;2023-04-01T04:00:30;98590.66;;;10.22;100.00
54808;BME280;40708;50.364;7.550;2023-04-01T04:02:56;98593.25;;;10.23;100.00
54808;BME280;40708;50.364;7.550;2023-04-01T04:05:22;98594.16;;;10.22;100.00
54808;BME280;40708;50.364;7.550;2023-04-01T04:07:48;98586.19;;;10.22;100.00
54808;BME280;40708;50.364;7.550;2023-04-01T04:10:13;98583.56;;;10.22;100.00
54808;BME280;40708;50.364;7.550;2023-04-01T04:12:39;98587.81;;;10.28;100.00
54808;BME280;40708;50.364;7.550;2023-04-01T04:15:06;98579.13;;;10.23;100.00
54808;BME280;40708;50.364;7.550;2023-04-01T04:17:32;98576.53;;;10.21;100.00
54808;BME280;40708;50.364;7.550;2023-04-01T04:19:57;98582.59;;;10.25;100.00
54808;BME280;40708;50.364;7.550;2023-04-01T04:22:22;98576.44;;;10.24;100.00
54808;BME280;40708;50.364;7.550;2023-04-01T04:24:48;98585.34;;;10.22;100.00
54808;BME280;40708;50.364;7.550;2023-04-01T04:27:13;98571.09;;;10.26;100.00
54808;BME280;40708;50.364;7.550;2023-04-01T04:29:38;98585.31;;;10.23;100.00
54808;BME280;40708;50.364;7.550;2023-04-01T04:32:04;98589.63;;;10.27;100.00
54808;BME280;40708;50.364;7.550;2023-04-01T04:34:29;98576.47;;;10.23;100.00
54808;BME280;40708;50.364;7.550;2023-04-01T04:36:54;98578.38;;;10.19;100.00
54808;BME280;40708;50.364;7.550;2023-04-01T04:39:20;98573.09;;;10.18;100.00
54808;BME280;40708;50.364;7.550;2023-04-01T04:41:45;98586.19;;;10.22;100.00
54808;BME280;40708;50.364;7.550;2023-04-01T04:44:10;98595.97;;;10.22;100.00
54808;BME280;40708;50.364;7.550;2023-04-01T04:46:36;98598.69;;;10.19;100.00
54808;BME280;40708;50.364;7.550;2023-04-01T04:49:03;98595.97;;;10.20;100.00
54808;BME280;40708;50.364;7.550;2023-04-01T04:51:28;98593.38;;;10.19;100.00
54808;BME280;40708;50.364;7.550;2023-04-01T04:53:53;98601.34;;;10.19;100.00
54808;BME280;40708;50.364;7.550;2023-04-01T04:56:20;98599.56;;;10.19;100.00
54808;BME280;40708;50.364;7.550;2023-04-01T04:58:45;98598.63;;;10.20;100.00
54808;BME280;40708;50.364;7.550;2023-04-01T05:01:15;98604.09;;;10.14;100.00
54808;BME280;40708;50.364;7.550;2023-04-01T05:03:41;98603.13;;;10.18;100.00
54808;BME280;40708;50.364;7.550;2023-04-01T05:06:08;98593.38;;;10.19;100.00
54808;BME280;40708;50.364;7.550;2023-04-01T05:08:34;98615.63;;;10.13;100.00
54808;BME280;40708;50.364;7.550;2023-04-01T05:11:00;98601.38;;;10.17;100.00
54808;BME280;40708;50.364;7.550;2023-04-01T05:13:26;98607.53;;;10.18;100.00
54808;BME280;40708;50.364;7.550;2023-04-01T05:15:51;98604.06;;;10.15;100.00
54808;BME280;40708;50.364;7.550;2023-04-01T05:18:16;98605.03;;;10.13;100.00
54808;BME280;40708;50.364;7.550;2023-04-01T05:20:47;98597.06;;;10.13;100.00
54808;BME280;40708;50.364;7.550;2023-04-01T05:23:12;98597.06;;;10.13;100.00
54808;BME280;40708;50.364;7.550;2023-04-01T05:25:38;98613.03;;;10.08;100.00
54808;BME280;40708;50.364;7.550;2023-04-01T05:28:03;98613.88;;;10.10;100.00
54808;BME280;40708;50.364;7.550;2023-04-01T05:30:29;98623.69;;;10.07;100.00
54808;BME280;40708;50.364;7.550;2023-04-01T05:32:54;98618.47;;;10.04;100.00
54808;BME280;40708;50.364;7.550;2023-04-01T05:35:19;98620.03;;;10.12;100.00
54808;BME280;40708;50.364;7.550;2023-04-01T05:37:45;98628.03;;;10.09;100.00
54808;BME280;40708;50.364;7.550;2023-04-01T05:40:10;98639.53;;;10.08;100.00
54808;BME280;40708;50.364;7.550;2023-04-01T05:42:36;98633.47;;;10.05;100.00
54808;BME280;40708;50.364;7.550;2023-04-01T05:45:01;98638.84;;;10.02;100.00
54808;BME280;40708;50.364;7.550;2023-04-01T05:47:26;98644.16;;;10.00;100.00
54808;BME280;40708;50.364;7.550;2023-04-01T05:49:51;98640.50;;;10.06;100.00
54808;BME280;40708;50.364;7.550;2023-04-01T05:52:17;98638.84;;;10.02;100.00
54808;BME280;40708;50.364;7.550;2023-04-01T05:54:42;98648.41;;;10.07;100.00
54808;BME280;40708;50.364;7.550;2023-04-01T05:57:07;98647.47;;;10.08;100.00
54808;BME280;40708;50.364;7.550;2023-04-01T05:59:32;98641.22;;;10.11;100.00
54808;BME280;40708;50.364;7.550;2023-04-01T06:01:59;98650.94;;;10.12;100.00
54808;BME280;40708;50.364;7.550;2023-04-01T06:04:26;98641.03;;;10.20;100.00
54808;BME280;40708;50.364;7.550;2023-04-01T06:06:53;98644.72;;;10.14;100.00
54808;BME280;40708;50.364;7.550;2023-04-01T06:09:26;98647.06;;;10.25;100.00
54808;BME280;40708;50.364;7.550;2023-04-01T06:17:30;98648.81;;;10.26;100.00
54808;BME280;40708;50.364;7.550;2023-04-01T06:28:02;98670.16;;;10.22;100.00
54808;BME280;40708;50.364;7.550;2023-04-01T06:30:47;98658.34;;;10.33;100.00
54808;BME280;40708;50.364;7.550;2023-04-01T06:43:57;98653.75;;;10.40;100.00
54808;BME280;40708;50.364;7.550;2023-04-01T06:46:40;98657.00;;;10.49;100.00
54808;BME280;40708;50.364;7.550;2023-04-01T06:49:31;98646.28;;;10.54;100.00
54808;BME280;40708;50.364;7.550;2023-04-01T06:54:38;98650.56;;;10.59;100.00
54808;BME280;40708;50.364;7.550;2023-04-01T06:57:19;98647.72;;;10.65;100.00
54808;BME280;40708;50.364;7.550;2023-04-01T06:59:47;98647.81;;;10.62;100.00
54808;BME280;40708;50.364;7.550;2023-04-01T07:02:39;98651.38;;;10.61;100.00
54808;BME280;40708;50.364;7.550;2023-04-01T07:05:06;98656.59;;;10.64;100.00
54808;BME280;40708;50.364;7.550;2023-04-01T07:07:39;98643.38;;;10.63;100.00
54808;BME280;40708;50.364;7.550;2023-04-01T07:10:18;98651.22;;;10.67;100.00
54808;BME280;40708;50.364;7.550;2023-04-01T07:12:52;98650.16;;;10.73;100.00
54808;BME280;40708;50.364;7.550;2023-04-01T07:15:39;98657.16;;;10.75;100.00
54808;BME280;40708;50.364;7.550;2023-04-01T07:18:14;98647.59;;;10.70;100.00
54808;BME280;40708;50.364;7.550;2023-04-01T07:20:41;98654.34;;;10.82;100.00
54808;BME280;40708;50.364;7.550;2023-04-01T07:23:25;98661.19;;;10.89;100.00
54808;BME280;40708;50.364;7.550;2023-04-01T07:25:55;98655.25;;;10.81;100.00
54808;BME280;40708;50.364;7.550;2023-04-01T07:28:23;98666.50;;;10.89;100.00
54808;BME280;40708;50.364;7.550;2023-04-01T07:31:01;98662.84;;;10.93;100.00
54808;BME280;40708;50.364;7.550;2023-04-01T07:36:37;98663.44;;;11.02;100.00
54808;BME280;40708;50.364;7.550;2023-04-01T07:48:15;98673.66;;;11.16;100.00
54808;BME280;40708;50.364;7.550;2023-04-01T07:50:56;98690.44;;;11.16;100.00
54808;BME280;40708;50.364;7.550;2023-04-01T07:56:12;98691.97;;;11.25;100.00
54808;BME280;40708;50.364;7.550;2023-04-01T08:01:41;98692.47;;;11.38;100.00
54808;BME280;40708;50.364;7.550;2023-04-01T08:04:19;98687.28;;;11.33;100.00
54808;BME280;40708;50.364;7.550;2023-04-01T08:07:12;98692.38;;;11.41;100.00
54808;BME280;40708;50.364;7.550;2023-04-01T08:12:21;98694.78;;;11.48;100.00
54808;BME280;40708;50.364;7.550;2023-04-01T08:15:12;98699.19;;;11.49;100.00
54808;BME280;40708;50.364;7.550;2023-04-01T08:17:59;98695.34;;;11.58;100.00
54808;BME280;40708;50.364;7.550;2023-04-01T08:23:10;98699.19;;;11.77;100.00
54808;BME280;40708;50.364;7.550;2023-04-01T08:25:46;98691.09;;;11.81;100.00
54808;BME280;40708;50.364;7.550;2023-04-01T08:30:53;98694.84;;;12.02;100.00
54808;BME280;40708;50.364;7.550;2023-04-01T08:33:24;98701.69;;;12.09;100.00
54808;BME280;40708;50.364;7.550;2023-04-01T08:36:08;98711.81;;;12.24;100.00
54808;BME280;40708;50.364;7.550;2023-04-01T08:39:04;98714.47;;;12.24;100.00
54808;BME280;40708;50.364;7.550;2023-04-01T08:41:58;98734.09;;;12.20;100.00
54808;BME280;40708;50.364;7.550;2023-04-01T08:45:05;98734.50;;;12.08;100.00
54808;BME280;40708;50.364;7.550;2023-04-01T08:50:36;98743.00;;;11.91;100.00
54808;BME280;40708;50.364;7.550;2023-04-01T08:56:18;98732.72;;;11.81;100.00
54808;BME280;40708;50.364;7.550;2023-04-01T08:59:09;98738.81;;;11.84;100.00
54808;BME280;40708;50.364;7.550;2023-04-01T09:18:13;98752.03;;;11.87;100.00
54808;BME280;40708;50.364;7.550;2023-04-01T09:26:32;98764.44;;;12.15;100.00
54808;BME280;40708;50.364;7.550;2023-04-01T09:32:26;98765.34;;;12.14;100.00
54808;BME280;40708;50.364;7.550;2023-04-01T09:35:21;98761.47;;;11.96;100.00
54808;BME280;40708;50.364;7.550;2023-04-01T09:38:59;98763.38;;;11.92;100.00
54808;BME280;40708;50.364;7.550;2023-04-01T09:54:54;98775.63;;;12.24;100.00
54808;BME280;40708;50.364;7.550;2023-04-01T10:08:03;98790.78;;;12.21;100.00
54808;BME280;40708;50.364;7.550;2023-04-01T10:13:59;98795.81;;;12.56;100.00
54808;BME280;40708;50.364;7.550;2023-04-01T10:22:16;98771.28;;;12.73;100.00
54808;BME280;40708;50.364;7.550;2023-04-01T10:25:02;98767.56;;;12.78;100.00
54808;BME280;40708;50.364;7.550;2023-04-01T10:36:23;98780.09;;;12.50;100.00
54808;BME280;40708;50.364;7.550;2023-04-01T10:39:17;98758.91;;;12.47;100.00
54808;BME280;40708;50.364;7.550;2023-04-01T11:00:18;98789.53;;;12.32;100.00
54808;BME280;40708;50.364;7.550;2023-04-01T11:03:19;98796.53;;;12.35;100.00
54808;BME280;40708;50.364;7.550;2023-04-01T11:06:18;98808.09;;;12.60;100.00
54808;BME280;40708;50.364;7.550;2023-04-01T11:09:29;98797.59;;;12.55;100.00
54808;BME280;40708;50.364;7.550;2023-04-01T11:12:34;98805.47;;;12.59;100.00
54808;BME280;40708;50.364;7.550;2023-04-01T11:17:59;98805.13;;;12.69;100.00
54808;BME280;40708;50.364;7.550;2023-04-01T11:20:49;98803.94;;;12.78;100.00
54808;BME280;40708;50.364;7.550;2023-04-01T11:23:30;98799.88;;;12.92;100.00
54808;BME280;40708;50.364;7.550;2023-04-01T11:31:37;98768.16;;;13.36;100.00
54808;BME280;40708;50.364;7.550;2023-04-01T11:34:16;98754.75;;;13.37;100.00
54808;BME280;40708;50.364;7.550;2023-04-01T11:39:20;98741.69;;;13.54;100.00
54808;BME280;40708;50.364;7.550;2023-04-01T11:41:59;98742.78;;;13.72;100.00
54808;BME280;40708;50.364;7.550;2023-04-01T11:44:29;98742.13;;;13.89;100.00
54808;BME280;40708;50.364;7.550;2023-04-01T11:50:10;98747.19;;;13.95;100.00
54808;BME280;40708;50.364;7.550;2023-04-01T11:55:32;98751.66;;;14.16;100.00
54808;BME280;40708;50.364;7.550;2023-04-01T11:58:22;98755.38;;;14.12;100.00
54808;BME280;40708;50.364;7.550;2023-04-01T12:04:21;98757.88;;;14.38;100.00
54808;BME280;40708;50.364;7.550;2023-04-01T12:07:06;98763.47;;;14.54;100.00
54808;BME280;40708;50.364;7.550;2023-04-01T12:10:12;98759.88;;;14.33;100.00
54808;BME280;40708;50.364;7.550;2023-04-01T12:15:50;98776.34;;;13.99;100.00
54808;BME280;40708;50.364;7.550;2023-04-01T12:18:29;98777.38;;;13.95;100.00
54808;BME280;40708;50.364;7.550;2023-04-01T12:21:20;98772.59;;;13.82;100.00
54808;BME280;40708;50.364;7.550;2023-04-01T12:27:18;98785.63;;;13.89;100.00
54808;BME280;40708;50.364;7.550;2023-04-01T12:38:26;98785.63;;;13.89;100.00
54808;BME280;40708;50.364;7.550;2023-04-01T12:41:09;98805.22;;;13.88;100.00
54808;BME280;40708;50.364;7.550;2023-04-01T12:43:51;98798.94;;;13.89;100.00
54808;BME280;40708;50.364;7.550;2023-04-01T12:46:32;98797.53;;;14.02;100.00
54808;BME280;40708;50.364;7.550;2023-04-01T12:49:16;98800.06;;;14.05;100.00
54808;BME280;40708;50.364;7.550;2023-04-01T12:52:09;98800.53;;;14.16;100.00
54808;BME280;40708;50.364;7.550;2023-04-01T13:00:43;98819.34;;;13.67;100.00
54808;BME280;40708;50.364;7.550;2023-04-01T13:06:11;98827.03;;;13.51;100.00
54808;BME280;40708;50.364;7.550;2023-04-01T13:11:36;98828.59;;;13.58;100.00
54808;BME280;40708;50.364;7.550;2023-04-01T13:17:04;98815.19;;;13.60;100.00
54808;BME280;40708;50.364;7.550;2023-04-01T13:19:49;98837.69;;;13.51;100.00
54808;BME280;40708;50.364;7.550;2023-04-01T13:25:55;98835.13;;;13.50;100.00
54808;BME280;40708;50.364;7.550;2023-04-01T13:28:51;98839.56;;;13.49;100.00
54808;BME280;40708;50.364;7.550;2023-04-01T13:31:26;98831.94;;;13.63;100.00
54808;BME280;40708;50.364;7.550;2023-04-01T13:37:17;98838.09;;;13.89;100.00
54808;BME280;40708;50.364;7.550;2023-04-01T13:42:34;98824.16;;;14.25;100.00
54808;BME280;40708;50.364;7.550;2023-04-01T13:45:13;98825.63;;;14.34;100.00
54808;BME280;40708;50.364;7.550;2023-04-01T13:50:39;98825.84;;;14.28;100.00
54808;BME280;40708;50.364;7.550;2023-04-01T13:56:38;98831.44;;;14.65;100.00
54808;BME280;40708;50.364;7.550;2023-04-01T13:59:17;98831.28;;;14.70;100.00
54808;BME280;40708;50.364;7.550;2023-04-01T14:01:50;98836.56;;;14.50;100.00
54808;BME280;40708;50.364;7.550;2023-04-01T14:07:32;98838.19;;;14.30;100.00
54808;BME280;40708;50.364;7.550;2023-04-01T14:10:21;98835.53;;;14.30;100.00
54808;BME280;40708;50.364;7.550;2023-04-01T14:13:00;98845.47;;;14.49;100.00
54808;BME280;40708;50.364;7.550;2023-04-01T14:18:36;98832.69;;;14.57;100.00
54808;BME280;40708;50.364;7.550;2023-04-01T14:29:23;98839.66;;;14.61;100.00
54808;BME280;40708;50.364;7.550;2023-04-01T14:32:00;98828.75;;;14.45;100.00
54808;BME280;40708;50.364;7.550;2023-04-01T14:34:48;98842.97;;;14.46;100.00
54808;BME280;40708;50.364;7.550;2023-04-01T14:43:20;98846.97;;;14.56;100.00
54808;BME280;40708;50.364;7.550;2023-04-01T14:48:30;98850.69;;;14.73;100.00
54808;BME280;40708;50.364;7.550;2023-04-01T14:51:08;98850.59;;;14.97;100.00
54808;BME280;40708;50.364;7.550;2023-04-01T14:53:37;98851.78;;;14.89;100.00
54808;BME280;40708;50.364;7.550;2023-04-01T14:56:07;98851.38;;;14.99;100.00
54808;BME280;40708;50.364;7.550;2023-04-01T14:58:47;98858.31;;;14.82;100.00
54808;BME280;40708;50.364;7.550;2023-04-01T15:04:26;98863.03;;;14.54;100.00
54808;BME280;40708;50.364;7.550;2023-04-01T15:09:59;98867.31;;;14.37;100.00
54808;BME280;40708;50.364;7.550;2023-04-01T15:15:39;98874.34;;;14.39;100.00
54808;BME280;40708;50.364;7.550;2023-04-01T15:24:29;98885.00;;;14.39;100.00
54808;BME280;40708;50.364;7.550;2023-04-01T15:27:22;98891.84;;;14.68;100.00
54808;BME280;40708;50.364;7.550;2023-04-01T15:35:38;98900.94;;;14.41;100.00
54808;BME280;40708;50.364;7.550;2023-04-01T15:43:43;98909.28;;;14.08;100.00
54808;BME280;40708;50.364;7.550;2023-04-01T15:46:26;98918.28;;;13.83;100.00
54808;BME280;40708;50.364;7.550;2023-04-01T15:49:27;98922.66;;;13.84;100.00
54808;BME280;40708;50.364;7.550;2023-04-01T15:52:10;98927.97;;;13.85;100.00
54808;BME280;40708;50.364;7.550;2023-04-01T16:00:27;98923.09;;;13.96;100.00
54808;BME280;40708;50.364;7.550;2023-04-01T16:03:07;98936.19;;;14.02;100.00
54808;BME280;40708;50.364;7.550;2023-04-01T16:13:30;98934.34;;;14.04;100.00
54808;BME280;40708;50.364;7.550;2023-04-01T16:21:34;98952.94;;;14.06;100.00
54808;BME280;40708;50.364;7.550;2023-04-01T16:24:33;98960.25;;;14.01;100.00
54808;BME280;40708;50.364;7.550;2023-04-01T16:29:53;98961.84;;;13.82;100.00
54808;BME280;40708;50.364;7.550;2023-04-01T16:32:49;98972.09;;;13.69;100.00
54808;BME280;40708;50.364;7.550;2023-04-01T16:35:23;98963.97;;;13.72;100.00
54808;BME280;40708;50.364;7.550;2023-04-01T16:37:59;98964.56;;;13.80;100.00
54808;BME280;40708;50.364;7.550;2023-04-01T16:40:40;98978.69;;;13.57;100.00
54808;BME280;40708;50.364;7.550;2023-04-01T16:43:11;98976.91;;;13.58;100.00
54808;BME280;40708;50.364;7.550;2023-04-01T16:45:43;98989.16;;;13.63;100.00
54808;BME280;40708;50.364;7.550;2023-04-01T16:48:15;98989.47;;;13.54;100.00
54808;BME280;40708;50.364;7.550;2023-04-01T16:50:56;98995.50;;;13.59;100.00
54808;BME280;40708;50.364;7.550;2023-04-01T16:53:42;98994.16;;;13.48;100.00
54808;BME280;40708;50.364;7.550;2023-04-01T16:56:21;98999.19;;;13.29;100.00
54808;BME280;40708;50.364;7.550;2023-04-01T17:04:28;99009.09;;;13.26;100.00
54808;BME280;40708;50.364;7.550;2023-04-01T17:09:55;99026.78;;;13.28;100.00
54808;BME280;40708;50.364;7.550;2023-04-01T17:12:35;99028.56;;;13.28;100.00
54808;BME280;40708;50.364;7.550;2023-04-01T17:17:41;99035.22;;;13.15;100.00
54808;BME280;40708;50.364;7.550;2023-04-01T17:20:25;99023.63;;;13.16;100.00
54808;BME280;40708;50.364;7.550;2023-04-01T17:23:04;99045.22;;;13.05;100.00
54808;BME280;40708;50.364;7.550;2023-04-01T17:25:49;99048.31;;;12.91;100.00
54808;BME280;40708;50.364;7.550;2023-04-01T17:28:36;99055.41;;;12.92;100.00
54808;BME280;40708;50.364;7.550;2023-04-01T17:31:33;99058.25;;;12.86;100.00
54808;BME280;40708;50.364;7.550;2023-04-01T17:34:12;99071.06;;;12.74;100.00
54808;BME280;40708;50.364;7.550;2023-04-01T17:37:11;99079.78;;;12.79;100.00
54808;BME280;40708;50.364;7.550;2023-04-01T17:39:57;99086.25;;;12.70;100.00
54808;BME280;40708;50.364;7.550;2023-04-01T17:45:33;99083.09;;;12.58;100.00
54808;BME280;40708;50.364;7.550;2023-04-01T17:48:24;99102.66;;;12.55;100.00
54808;BME280;40708;50.364;7.550;2023-04-01T17:51:08;99097.53;;;12.47;100.00
54808;BME280;40708;50.364;7.550;2023-04-01T17:53:52;99104.66;;;12.47;100.00
54808;BME280;40708;50.364;7.550;2023-04-01T17:56:47;99118.16;;;12.39;100.00
54808;BME280;40708;50.364;7.550;2023-04-01T17:59:45;99117.31;;;12.39;100.00
54808;BME280;40708;50.364;7.550;2023-04-01T18:02:44;99132.41;;;12.37;100.00
54808;BME280;40708;50.364;7.550;2023-04-01T18:05:26;99131.66;;;12.33;100.00
54808;BME280;40708;50.364;7.550;2023-04-01T18:08:02;99138.75;;;12.33;100.00
54808;BME280;40708;50.364;7.550;2023-04-01T18:16:01;99152.94;;;12.33;100.00
54808;BME280;40708;50.364;7.550;2023-04-01T18:21:23;99177.31;;;12.17;100.00
54808;BME280;40708;50.364;7.550;2023-04-01T18:24:02;99192.38;;;12.16;100.00
54808;BME280;40708;50.364;7.550;2023-04-01T18:26:33;99213.69;;;12.15;100.00
54808;BME280;40708;50.364;7.550;2023-04-01T18:29:04;99225.50;;;12.03;100.00
54808;BME280;40708;50.364;7.550;2023-04-01T18:31:41;99238.06;;;11.97;100.00
54808;BME280;40708;50.364;7.550;2023-04-01T18:34:39;99249.69;;;11.92;100.00